createdAt,value
2019-05-16T00:00:52.957Z,45.04
2019-05-16T00:01:52.919Z,45.04
2019-05-16T00:02:52.899Z,45.04
2019-05-16T00:03:52.916Z,45.15
2019-05-16T00:04:52.883Z,45.15
2019-05-16T00:05:54.498Z,45.56
2019-05-16T00:06:52.876Z,45.66
2019-05-16T00:07:52.848Z,45.87
2019-05-16T00:08:52.859Z,45.76
2019-05-16T00:09:52.818Z,45.66
2019-05-16T00:10:52.809Z,45.56
2019-05-16T00:11:52.816Z,45.87
2019-05-16T00:12:52.801Z,45.76
2019-05-16T00:13:52.808Z,45.87
2019-05-16T00:14:52.769Z,45.87
2019-05-16T00:15:52.757Z,46.07
2019-05-16T00:16:52.784Z,45.87
2019-05-16T00:17:52.753Z,45.76
2019-05-16T00:18:52.779Z,45.36
2019-05-16T00:19:52.724Z,45.87
2019-05-16T00:20:52.704Z,46.05
2019-05-16T00:21:52.709Z,45.95
2019-05-16T00:22:52.692Z,45.74
2019-05-16T00:23:52.672Z,46.07
2019-05-16T00:24:52.667Z,46.05
2019-05-16T00:25:52.663Z,45.76
2019-05-16T00:26:52.682Z,45.87
2019-05-16T00:27:52.623Z,45.87
2019-05-16T00:28:52.621Z,45.97
2019-05-16T00:29:52.650Z,45.76
2019-05-16T00:30:52.610Z,45.76
2019-05-16T00:31:52.620Z,46.05
2019-05-16T00:32:52.588Z,46.25
2019-05-16T00:33:52.560Z,46.15
2019-05-16T00:34:52.550Z,46.69
2019-05-16T00:36:02.600Z,46.69
2019-05-16T00:36:53.558Z,46.69
2019-05-16T00:37:52.528Z,46.79
2019-05-16T00:38:52.520Z,46.58
2019-05-16T00:39:52.520Z,46.79
2019-05-16T00:40:52.486Z,46.89
2019-05-16T00:41:52.488Z,46.89
2019-05-16T00:42:52.494Z,47.20
2019-05-16T00:43:52.460Z,47.09
2019-05-16T00:44:52.460Z,47.09
2019-05-16T00:45:52.492Z,47.41
2019-05-16T00:46:52.482Z,47.81
2019-05-16T00:47:52.412Z,47.71
2019-05-16T00:48:52.402Z,47.81
2019-05-16T00:50:00.748Z,47.81
2019-05-16T00:50:52.399Z,47.81
2019-05-16T00:51:52.428Z,47.71
2019-05-16T00:52:52.438Z,47.92
2019-05-16T00:53:52.407Z,48.02
2019-05-16T00:54:52.350Z,48.13
2019-05-16T00:55:52.362Z,48.02
2019-05-16T00:56:52.355Z,48.22
2019-05-16T00:57:52.318Z,48.43
2019-05-16T00:58:52.343Z,48.56
2019-05-16T00:59:52.405Z,48.66
2019-05-16T01:00:52.332Z,48.54
2019-05-16T01:01:52.307Z,48.84
2019-05-16T01:02:52.265Z,49.15
2019-05-16T01:03:52.430Z,49.46
2019-05-16T01:04:52.254Z,48.94
2019-05-16T01:05:52.222Z,49.05
2019-05-16T01:06:52.267Z,49.35
2019-05-16T01:07:52.255Z,49.27
2019-05-16T01:08:52.268Z,49.58
2019-05-16T01:09:52.362Z,49.58
2019-05-16T01:10:52.392Z,49.58
2019-05-16T01:11:52.216Z,49.89
2019-05-16T01:12:52.202Z,49.99
2019-05-16T01:13:52.181Z,50.10
2019-05-16T01:14:52.128Z,50.10
2019-05-16T01:15:52.147Z,50.40
2019-05-16T01:16:52.149Z,50.40
2019-05-16T01:17:52.135Z,50.20
2019-05-16T01:18:52.114Z,50.61
2019-05-16T01:19:52.221Z,50.71
2019-05-16T01:20:52.109Z,51.02
2019-05-16T01:21:52.130Z,51.23
2019-05-16T01:22:52.110Z,51.43
2019-05-16T01:23:52.066Z,51.43
2019-05-16T01:24:52.053Z,51.53
2019-05-16T01:25:52.095Z,51.74
2019-05-16T01:26:52.030Z,52.04
2019-05-16T01:27:52.053Z,52.15
2019-05-16T01:28:52.071Z,52.15
2019-05-16T01:29:52.025Z,52.07
2019-05-16T01:30:51.995Z,52.59
2019-05-16T01:31:52.087Z,52.59
2019-05-16T01:32:51.991Z,52.59
2019-05-16T01:33:51.995Z,52.79
2019-05-16T01:34:51.983Z,52.89
2019-05-16T01:35:51.941Z,53.20
2019-05-16T01:36:51.993Z,53.41
2019-05-16T01:37:51.943Z,53.72
2019-05-16T01:38:51.946Z,54.13
2019-05-16T01:39:51.891Z,54.66
2019-05-16T01:40:51.913Z,54.87
2019-05-16T01:41:51.891Z,55.18
2019-05-16T01:42:51.839Z,55.49
2019-05-16T01:43:51.855Z,55.59
2019-05-16T01:44:51.879Z,55.69
2019-05-16T01:45:51.833Z,55.79
2019-05-16T01:46:51.869Z,55.79
2019-05-16T01:47:51.871Z,56.21
2019-05-16T01:48:51.817Z,56.44
2019-05-16T01:49:51.829Z,56.62
2019-05-16T01:50:51.805Z,56.51
2019-05-16T01:51:51.795Z,56.62
2019-05-16T01:52:51.797Z,56.62
2019-05-16T01:53:51.759Z,56.72
2019-05-16T01:54:51.758Z,57.13
2019-05-16T01:55:51.698Z,57.23
2019-05-16T01:56:51.769Z,57.36
2019-05-16T01:57:51.747Z,57.36
2019-05-16T01:58:51.701Z,57.57
2019-05-16T01:59:51.696Z,57.67
2019-05-16T02:01:01.987Z,57.85
2019-05-16T02:01:52.649Z,58.08
2019-05-16T02:02:51.627Z,58.29
2019-05-16T02:03:51.665Z,58.50
2019-05-16T02:04:51.593Z,58.59
2019-05-16T02:05:51.613Z,59.52
2019-05-16T02:06:54.834Z,60.45
2019-05-16T02:07:51.693Z,60.96
2019-05-16T02:08:51.605Z,61.58
2019-05-16T02:09:51.612Z,61.07
2019-05-16T02:10:51.593Z,60.75
2019-05-16T02:11:51.542Z,60.55
2019-05-16T02:12:51.519Z,60.65
2019-05-16T02:13:51.639Z,60.86
2019-05-16T02:14:51.532Z,60.96
2019-05-16T02:15:51.531Z,60.75
2019-05-16T02:16:51.586Z,61.07
2019-05-16T02:17:51.491Z,61.27
2019-05-16T02:18:51.678Z,61.37
2019-05-16T02:19:51.673Z,60.65
2019-05-16T02:20:51.549Z,61.09
2019-05-16T02:21:51.568Z,61.27
2019-05-16T02:22:51.526Z,61.51
2019-05-16T02:23:51.731Z,61.27
2019-05-16T02:24:51.515Z,61.40
2019-05-16T02:25:51.696Z,61.71
2019-05-16T02:26:52.356Z,61.51
2019-05-16T02:27:51.345Z,61.81
2019-05-16T02:28:51.380Z,61.30
2019-05-16T02:29:51.349Z,61.51
2019-05-16T02:30:51.922Z,61.61
2019-05-16T02:31:51.582Z,61.71
2019-05-16T02:32:52.338Z,62.02
2019-05-16T02:33:51.430Z,61.91
2019-05-16T02:34:51.512Z,61.91
2019-05-16T02:35:55.366Z,62.12
2019-05-16T02:37:10.364Z,62.23
2019-05-16T02:37:55.173Z,62.02
2019-05-16T02:38:55.447Z,62.02
2019-05-16T02:39:54.448Z,61.71
2019-05-16T02:40:55.148Z,61.91
2019-05-16T02:41:52.026Z,62.02
2019-05-16T02:42:51.621Z,61.71
2019-05-16T02:43:51.205Z,61.71
2019-05-16T02:44:51.385Z,61.61
2019-05-16T02:45:51.961Z,61.91
2019-05-16T02:46:51.192Z,62.12
2019-05-16T02:47:51.460Z,62.02
2019-05-16T02:48:51.879Z,61.91
2019-05-16T02:49:51.173Z,61.81
2019-05-16T02:50:51.666Z,61.91
2019-05-16T02:51:51.363Z,61.71
2019-05-16T02:52:51.930Z,61.30
2019-05-16T02:53:51.370Z,61.61
2019-05-16T02:54:53.631Z,61.19
2019-05-16T02:55:51.796Z,60.58
2019-05-16T02:56:51.173Z,60.68
2019-05-16T02:57:51.233Z,60.78
2019-05-16T02:58:52.050Z,60.89
2019-05-16T02:59:51.239Z,60.99
2019-05-16T03:00:51.559Z,61.30
2019-05-16T03:01:52.185Z,61.51
2019-05-16T03:02:51.077Z,61.19
2019-05-16T03:03:51.706Z,61.40
2019-05-16T03:04:51.937Z,61.30
2019-05-16T03:05:51.253Z,61.51
2019-05-16T03:06:51.361Z,61.30
2019-05-16T03:07:52.063Z,61.51
2019-05-16T03:08:50.968Z,61.33
2019-05-16T03:09:51.509Z,61.63
2019-05-16T03:10:51.988Z,61.74
2019-05-16T03:11:51.062Z,61.84
2019-05-16T03:12:51.402Z,62.15
2019-05-16T03:13:51.443Z,62.35
2019-05-16T03:14:54.493Z,62.46
2019-05-16T03:15:51.106Z,62.56
2019-05-16T03:16:50.834Z,62.77
2019-05-16T03:17:50.954Z,62.87
2019-05-16T03:18:51.647Z,62.97
2019-05-16T03:19:51.191Z,62.97
2019-05-16T03:20:51.177Z,62.87
2019-05-16T03:21:51.005Z,63.07
2019-05-16T03:22:52.001Z,62.97
2019-05-16T03:23:50.891Z,63.07
2019-05-16T03:24:51.563Z,63.07
2019-05-16T03:25:50.917Z,63.07
2019-05-16T03:26:51.447Z,63.18
2019-05-16T03:27:51.315Z,63.28
2019-05-16T03:28:52.090Z,63.69
2019-05-16T03:29:50.831Z,63.49
2019-05-16T03:30:54.767Z,63.49
2019-05-16T03:31:54.171Z,63.79
2019-05-16T03:32:54.770Z,63.59
2019-05-16T03:33:58.876Z,63.90
2019-05-16T03:34:54.708Z,63.59
2019-05-16T03:35:54.442Z,63.49
2019-05-16T03:36:54.505Z,63.69
2019-05-16T03:37:57.051Z,63.59
2019-05-16T03:38:51.676Z,63.59
2019-05-16T03:39:51.407Z,63.90
2019-05-16T03:40:51.198Z,64.00
2019-05-16T03:41:50.759Z,63.59
2019-05-16T03:42:51.812Z,64.00
2019-05-16T03:43:50.901Z,64.00
2019-05-16T03:44:51.246Z,64.00
2019-05-16T03:45:52.128Z,64.00
2019-05-16T03:46:51.823Z,63.79
2019-05-16T03:47:51.274Z,64.00
2019-05-16T03:48:52.000Z,64.21
2019-05-16T03:49:51.803Z,63.90
2019-05-16T03:50:51.042Z,64.00
2019-05-16T03:51:50.669Z,64.00
2019-05-16T03:52:50.969Z,63.90
2019-05-16T03:53:50.806Z,63.90
2019-05-16T03:54:50.803Z,64.00
2019-05-16T03:55:51.740Z,64.00
2019-05-16T03:56:51.379Z,64.00
2019-05-16T03:57:51.596Z,63.69
2019-05-16T03:58:51.016Z,63.79
2019-05-16T03:59:51.790Z,63.67
2019-05-16T04:00:52.180Z,63.97
2019-05-16T04:01:51.112Z,63.35
2019-05-16T04:02:52.262Z,63.67
2019-05-16T04:03:51.330Z,63.56
2019-05-16T04:04:51.057Z,63.67
2019-05-16T04:05:52.681Z,63.67
2019-05-16T04:06:50.758Z,63.67
2019-05-16T04:07:53.035Z,63.67
2019-05-16T04:08:51.349Z,63.46
2019-05-16T04:09:50.765Z,63.56
2019-05-16T04:10:52.134Z,63.76
2019-05-16T04:11:51.024Z,63.56
2019-05-16T04:12:51.358Z,63.67
2019-05-16T04:13:50.877Z,63.56
2019-05-16T04:14:51.230Z,63.56
2019-05-16T04:15:52.536Z,64.07
2019-05-16T04:16:51.032Z,64.07
2019-05-16T04:17:51.230Z,63.97
2019-05-16T04:18:51.439Z,63.97
2019-05-16T04:19:51.016Z,63.97
2019-05-16T04:20:52.273Z,64.07
2019-05-16T04:21:51.150Z,64.39
2019-05-16T04:22:51.296Z,65.92
2019-05-16T04:23:50.680Z,66.13
2019-05-16T04:24:51.254Z,66.96
2019-05-16T04:25:52.212Z,67.47
2019-05-16T04:26:51.656Z,67.47
2019-05-16T04:27:50.306Z,67.47
2019-05-16T04:28:51.385Z,67.47
2019-05-16T04:29:51.360Z,67.57
2019-05-16T04:30:50.882Z,66.13
2019-05-16T04:31:50.841Z,66.64
2019-05-16T04:32:51.036Z,66.96
2019-05-16T04:33:51.601Z,67.78
2019-05-16T04:34:51.097Z,67.68
2019-05-16T04:35:52.513Z,68.70
2019-05-16T04:36:51.400Z,68.70
2019-05-16T04:37:51.297Z,68.50
2019-05-16T04:38:51.269Z,68.70
2019-05-16T04:39:50.665Z,68.60
2019-05-16T04:40:51.541Z,68.46
2019-05-16T04:41:50.872Z,68.67
2019-05-16T04:42:51.258Z,68.77
2019-05-16T04:43:50.706Z,68.88
2019-05-16T04:44:51.548Z,68.67
2019-05-16T04:45:52.179Z,68.98
2019-05-16T04:46:50.999Z,68.88
2019-05-16T04:47:51.205Z,67.95
2019-05-16T04:48:50.763Z,67.71
2019-05-16T04:49:51.850Z,67.20
2019-05-16T04:50:51.575Z,67.30
2019-05-16T04:51:51.667Z,66.45
2019-05-16T04:52:51.808Z,65.94
2019-05-16T04:53:50.982Z,65.42
2019-05-16T04:54:51.211Z,65.73
2019-05-16T04:55:51.705Z,65.53
2019-05-16T04:56:51.339Z,65.83
2019-05-16T04:57:51.181Z,66.04
2019-05-16T04:58:51.472Z,65.94
2019-05-16T04:59:50.843Z,65.94
2019-05-16T05:00:51.693Z,65.60
2019-05-16T05:01:51.146Z,65.50
2019-05-16T05:02:51.815Z,65.39
2019-05-16T05:04:01.858Z,65.16
2019-05-16T05:04:51.076Z,64.95
2019-05-16T05:05:51.261Z,64.98
2019-05-16T05:06:51.263Z,65.29
2019-05-16T05:07:51.161Z,65.60
2019-05-16T05:08:57.877Z,65.09
2019-05-16T05:09:51.374Z,65.19
2019-05-16T05:10:51.301Z,64.54
2019-05-16T05:11:51.903Z,64.34
2019-05-16T05:12:51.480Z,64.23
2019-05-16T05:13:50.584Z,64.23
2019-05-16T05:14:51.033Z,64.26
2019-05-16T05:15:50.972Z,64.98
2019-05-16T05:16:50.714Z,64.75
2019-05-16T05:17:50.292Z,64.64
2019-05-16T05:18:51.513Z,64.85
2019-05-16T05:19:50.672Z,64.34
2019-05-16T05:20:52.376Z,63.90
2019-05-16T05:21:51.385Z,63.59
2019-05-16T05:22:50.038Z,63.18
2019-05-16T05:23:50.824Z,63.79
2019-05-16T05:24:50.752Z,63.69
2019-05-16T05:25:51.472Z,64.03
2019-05-16T05:26:50.373Z,63.79
2019-05-16T05:27:50.095Z,64.00
2019-05-16T05:28:50.831Z,64.20
2019-05-16T05:29:50.286Z,62.56
2019-05-16T05:30:50.342Z,62.98
2019-05-16T05:31:54.872Z,64.10
2019-05-16T05:32:50.455Z,61.95
2019-05-16T05:33:50.678Z,62.02
2019-05-16T05:34:50.385Z,62.33
2019-05-16T05:35:50.782Z,63.05
2019-05-16T05:36:51.190Z,62.51
2019-05-16T05:37:50.794Z,61.04
2019-05-16T05:39:06.210Z,59.61
2019-05-16T05:39:50.550Z,59.07
2019-05-16T05:40:51.015Z,58.86
2019-05-16T05:41:50.430Z,58.73
2019-05-16T05:42:50.472Z,58.12
2019-05-16T05:43:50.360Z,58.43
2019-05-16T05:44:50.805Z,58.07
2019-05-16T05:45:51.166Z,58.38
2019-05-16T05:46:51.139Z,58.48
2019-05-16T05:47:50.490Z,58.58
2019-05-16T05:48:50.486Z,59.09
2019-05-16T05:49:49.852Z,58.72
2019-05-16T05:50:50.854Z,59.12
2019-05-16T05:51:50.066Z,59.09
2019-05-16T05:52:51.111Z,59.09
2019-05-16T05:53:50.975Z,58.79
2019-05-16T05:54:50.256Z,58.79
2019-05-16T05:55:51.007Z,58.38
2019-05-16T05:56:50.111Z,58.48
2019-05-16T05:57:50.692Z,58.79
2019-05-16T05:58:51.248Z,57.97
2019-05-16T05:59:49.806Z,58.35
2019-05-16T06:00:52.022Z,57.84
2019-05-16T06:01:51.625Z,58.04
2019-05-16T06:02:50.772Z,58.04
2019-05-16T06:03:50.553Z,57.33
2019-05-16T06:04:50.191Z,57.76
2019-05-16T06:05:50.496Z,58.48
2019-05-16T06:06:50.388Z,58.58
2019-05-16T06:07:50.972Z,58.56
2019-05-16T06:08:50.213Z,57.84
2019-05-16T06:09:55.601Z,57.20
2019-05-16T06:10:50.595Z,57.10
2019-05-16T06:11:50.151Z,57.20
2019-05-16T06:12:50.074Z,55.94
2019-05-16T06:13:49.995Z,56.15
2019-05-16T06:14:50.439Z,55.94
2019-05-16T06:15:51.052Z,55.92
2019-05-16T06:16:50.841Z,55.64
2019-05-16T06:17:50.889Z,56.28
2019-05-16T06:18:50.289Z,56.15
2019-05-16T06:19:49.787Z,56.15
2019-05-16T06:20:51.331Z,56.46
2019-05-16T06:21:50.336Z,55.56
2019-05-16T06:22:50.922Z,55.77
2019-05-16T06:23:50.862Z,55.74
2019-05-16T06:24:50.446Z,55.23
2019-05-16T06:25:50.484Z,55.36
2019-05-16T06:26:50.465Z,55.87
2019-05-16T06:27:51.095Z,55.87
2019-05-16T06:28:50.519Z,55.84
2019-05-16T06:29:49.698Z,55.54
2019-05-16T06:30:51.422Z,55.66
2019-05-16T06:31:49.653Z,55.77
2019-05-16T06:32:50.199Z,55.87
2019-05-16T06:33:50.181Z,55.87
2019-05-16T06:34:50.644Z,55.87
2019-05-16T06:35:51.348Z,55.05
2019-05-16T06:36:50.884Z,55.54
2019-05-16T06:37:49.991Z,55.23
2019-05-16T06:38:49.830Z,55.64
2019-05-16T06:39:50.267Z,54.92
2019-05-16T06:40:49.969Z,55.43
2019-05-16T06:41:50.863Z,55.74
2019-05-16T06:42:50.875Z,55.43
2019-05-16T06:43:50.758Z,55.64
2019-05-16T06:44:50.368Z,54.72
2019-05-16T06:45:51.379Z,54.92
2019-05-16T06:46:59.781Z,54.92
2019-05-16T06:47:50.436Z,55.64
2019-05-16T06:48:50.553Z,56.15
2019-05-16T06:49:50.846Z,55.56
2019-05-16T06:50:56.394Z,55.66
2019-05-16T06:51:48.575Z,56.18
2019-05-16T06:52:50.223Z,56.28
2019-05-16T06:53:50.085Z,56.41
2019-05-16T06:54:50.426Z,56.69
2019-05-16T06:55:49.772Z,56.71
2019-05-16T06:56:51.004Z,56.82
2019-05-16T06:57:50.363Z,56.92
2019-05-16T06:58:51.808Z,57.33
2019-05-16T06:59:49.982Z,56.92
2019-05-16T07:00:51.659Z,57.33
2019-05-16T07:01:50.034Z,57.33
2019-05-16T07:02:49.899Z,57.02
2019-05-16T07:03:50.603Z,57.33
2019-05-16T07:04:50.439Z,57.33
2019-05-16T07:05:50.396Z,57.40
2019-05-16T07:06:58.707Z,57.30
2019-05-16T07:07:50.969Z,56.99
2019-05-16T07:08:50.758Z,57.23
2019-05-16T07:09:58.061Z,56.79
2019-05-16T07:10:50.899Z,56.99
2019-05-16T07:11:50.324Z,57.40
2019-05-16T07:12:50.422Z,57.30
2019-05-16T07:13:51.706Z,56.89
2019-05-16T07:14:50.345Z,57.43
2019-05-16T07:15:50.105Z,57.23
2019-05-16T07:16:49.679Z,57.02
2019-05-16T07:17:50.469Z,57.53
2019-05-16T07:18:50.386Z,57.53
2019-05-16T07:19:50.261Z,57.02
2019-05-16T07:20:50.742Z,57.53
2019-05-16T07:21:56.263Z,57.12
2019-05-16T07:22:50.332Z,57.71
2019-05-16T07:23:50.874Z,57.30
2019-05-16T07:25:00.396Z,56.79
2019-05-16T07:25:50.544Z,56.56
2019-05-16T07:26:50.010Z,56.76
2019-05-16T07:27:51.114Z,56.63
2019-05-16T07:28:51.278Z,55.74
2019-05-16T07:29:50.640Z,56.56
2019-05-16T07:30:50.701Z,56.76
2019-05-16T07:31:52.351Z,56.56
2019-05-16T07:32:52.292Z,56.76
2019-05-16T07:34:05.154Z,56.97
2019-05-16T07:36:00.361Z,56.33
2019-05-16T07:37:00.477Z,55.94
2019-05-16T07:38:00.608Z,56.35
2019-05-16T07:38:59.785Z,55.71
2019-05-16T07:40:08.463Z,55.92
2019-05-16T07:41:00.342Z,55.49
2019-05-16T07:41:59.951Z,54.67
2019-05-16T07:43:00.069Z,54.54
2019-05-16T07:44:00.953Z,53.70
2019-05-16T07:45:00.679Z,53.36
2019-05-16T07:46:00.464Z,52.75
2019-05-16T07:47:01.019Z,53.08
2019-05-16T07:48:00.101Z,53.29
2019-05-16T07:49:01.215Z,53.42
2019-05-16T07:49:59.614Z,53.72
2019-05-16T07:51:00.559Z,53.59
2019-05-16T07:52:00.578Z,53.52
2019-05-16T07:53:00.004Z,53.83
2019-05-16T07:53:59.747Z,53.21
2019-05-16T07:55:00.275Z,53.59
2019-05-16T07:56:00.112Z,53.62
2019-05-16T07:57:11.492Z,53.72
2019-05-16T07:58:00.196Z,53.83
2019-05-16T07:59:00.919Z,54.16
2019-05-16T08:00:00.197Z,54.46
2019-05-16T08:01:04.440Z,54.67
2019-05-16T08:02:00.650Z,54.67
2019-05-16T08:02:59.985Z,55.08
2019-05-16T08:04:00.026Z,54.74
2019-05-16T08:05:00.772Z,54.77
2019-05-16T08:06:01.770Z,55.38
2019-05-16T08:07:00.626Z,55.49
2019-05-16T08:08:00.020Z,55.18
2019-05-16T08:09:00.227Z,55.46
2019-05-16T08:09:59.845Z,55.26
2019-05-16T08:11:01.523Z,55.36
2019-05-16T08:12:01.604Z,55.46
2019-05-16T08:13:03.420Z,55.69
2019-05-16T08:14:01.022Z,55.79
2019-05-16T08:15:00.769Z,56.10
2019-05-16T08:16:01.159Z,55.99
2019-05-16T08:17:01.097Z,56.10
2019-05-16T08:18:03.145Z,56.30
2019-05-16T08:19:00.938Z,56.71
2019-05-16T08:20:00.143Z,56.51
2019-05-16T08:21:00.965Z,56.38
2019-05-16T08:22:01.348Z,56.27
2019-05-16T08:23:00.828Z,56.04
2019-05-16T08:24:05.842Z,55.66
2019-05-16T08:25:00.309Z,55.66
2019-05-16T08:27:01.169Z,55.97
2019-05-16T08:28:01.193Z,56.38
2019-05-16T08:29:02.055Z,56.58
2019-05-16T08:30:02.114Z,56.38
2019-05-16T08:31:00.865Z,56.58
2019-05-16T08:32:02.091Z,57.02
2019-05-16T08:33:02.401Z,58.07
2019-05-16T08:34:00.887Z,58.37
2019-05-16T08:35:00.994Z,58.40
2019-05-16T08:36:02.940Z,59.30
2019-05-16T08:37:01.191Z,59.30
2019-05-16T08:38:01.076Z,59.09
2019-05-16T08:39:01.093Z,58.58
2019-05-16T08:40:00.379Z,58.58
2019-05-16T08:41:08.013Z,58.89
2019-05-16T08:42:07.812Z,59.32
2019-05-16T08:43:00.414Z,59.42
2019-05-16T08:44:01.119Z,59.94
2019-05-16T08:45:01.855Z,59.60
2019-05-16T08:46:01.055Z,59.63
2019-05-16T08:47:05.631Z,60.11
2019-05-16T08:48:00.295Z,60.14
2019-05-16T08:49:01.110Z,60.85
2019-05-16T08:50:00.646Z,61.36
2019-05-16T08:50:05.207Z,55.97
2019-05-16T08:52:01.435Z,62.01
2019-05-16T08:53:02.574Z,62.45
2019-05-16T08:54:01.570Z,63.37
2019-05-16T08:55:03.102Z,62.96
2019-05-16T08:56:02.625Z,63.03
2019-05-16T08:57:16.306Z,63.03
2019-05-16T08:58:02.541Z,63.51
2019-05-16T08:59:01.803Z,63.95
2019-05-16T09:00:01.321Z,64.74
2019-05-16T09:01:02.283Z,65.25
2019-05-16T09:02:03.311Z,66.10
2019-05-16T09:03:01.776Z,66.20
2019-05-16T09:04:01.515Z,66.51
2019-05-16T09:05:04.404Z,67.30
2019-05-16T09:06:02.987Z,67.10
2019-05-16T09:07:01.962Z,67.40
2019-05-16T09:09:10.218Z,68.15
2019-05-16T09:10:00.397Z,68.55
2019-05-16T09:10:30.561Z,61.67
2019-05-16T09:10:41.078Z,66.69
2019-05-16T09:11:02.094Z,69.20
2019-05-16T09:11:59.354Z,70.23
2019-05-16T09:12:58.401Z,70.64
2019-05-16T09:13:58.381Z,70.94
2019-05-16T09:14:59.551Z,71.49
2019-05-16T09:15:58.335Z,71.86
2019-05-16T09:16:58.328Z,71.36
2019-05-16T09:17:58.327Z,72.28
2019-05-16T09:18:58.304Z,70.74
2019-05-16T09:19:58.302Z,72.07
2019-05-16T09:20:58.300Z,70.64
2019-05-16T09:21:58.252Z,72.69
2019-05-16T09:22:58.259Z,71.12
2019-05-16T09:23:58.241Z,69.89
2019-05-16T09:24:58.235Z,69.79
2019-05-16T09:25:58.624Z,70.06
2019-05-16T09:26:58.200Z,68.80
2019-05-16T09:27:58.211Z,67.98
2019-05-16T09:28:58.183Z,67.10
2019-05-16T09:29:58.176Z,65.98
2019-05-16T09:30:58.181Z,65.16
2019-05-16T09:32:09.105Z,65.98
2019-05-16T09:32:59.130Z,67.45
2019-05-16T09:33:58.137Z,65.20
2019-05-16T09:34:58.128Z,64.56
2019-05-16T09:35:58.114Z,66.30
2019-05-16T09:37:01.563Z,65.95
2019-05-16T09:37:58.099Z,62.93
2019-05-16T09:38:58.107Z,63.98
2019-05-16T09:39:58.056Z,63.78
2019-05-16T09:40:58.059Z,63.37
2019-05-16T09:41:58.695Z,63.10
2019-05-16T09:43:07.646Z,63.00
2019-05-16T09:43:58.905Z,63.85
2019-05-16T09:44:58.148Z,65.45
2019-05-16T09:46:03.696Z,66.64
2019-05-16T09:46:58.987Z,62.87
2019-05-16T09:47:58.085Z,63.20
2019-05-16T09:49:15.782Z,63.98
2019-05-16T09:49:58.949Z,66.22
2019-05-16T09:50:58.027Z,65.20
2019-05-16T09:51:57.930Z,64.90
2019-05-16T09:52:57.915Z,65.71
2019-05-16T09:53:57.916Z,65.84
2019-05-16T09:54:57.984Z,67.27
2019-05-16T09:55:57.895Z,67.71
2019-05-16T09:56:57.876Z,67.82
2019-05-16T09:57:58.555Z,69.45
2019-05-16T09:58:57.871Z,68.05
2019-05-16T09:59:57.863Z,69.28
2019-05-16T10:00:57.860Z,68.90
2019-05-16T10:01:57.834Z,70.64
2019-05-16T10:02:58.106Z,69.52
2019-05-16T10:04:06.675Z,69.31
2019-05-16T10:04:58.210Z,67.37
2019-05-16T10:05:57.803Z,66.66
2019-05-16T10:06:57.759Z,66.69
2019-05-16T10:07:57.752Z,67.30
2019-05-16T10:08:57.749Z,66.99
2019-05-16T10:09:57.730Z,66.69
2019-05-16T10:10:57.721Z,67.10
2019-05-16T10:12:08.149Z,66.25
2019-05-16T10:12:58.689Z,65.84
2019-05-16T10:13:57.699Z,65.43
2019-05-16T10:14:59.677Z,66.04
2019-05-16T10:15:57.673Z,66.04
2019-05-16T10:16:57.975Z,64.92
2019-05-16T10:17:57.714Z,65.05
2019-05-16T10:18:57.701Z,65.84
2019-05-16T10:20:00.105Z,65.22
2019-05-16T10:20:59.377Z,65.12
2019-05-16T10:22:00.159Z,65.33
2019-05-16T10:22:58.081Z,65.73
2019-05-16T10:23:57.599Z,65.50
2019-05-16T10:24:57.754Z,65.22
